createdAt,value
2018-11-13T00:00:58.307Z,0.00
2018-11-13T00:01:58.288Z,0.00
2018-11-13T00:02:58.279Z,0.00
2018-11-13T00:03:58.249Z,0.00
2018-11-13T00:04:58.234Z,0.00
2018-11-13T00:05:58.205Z,0.00
2018-11-13T00:06:58.186Z,0.00
2018-11-13T00:07:58.170Z,0.00
2018-11-13T00:08:58.143Z,0.00
2018-11-13T00:09:58.121Z,0.00
2018-11-13T00:10:58.103Z,0.00
2018-11-13T00:11:58.077Z,0.00
2018-11-13T00:12:58.055Z,0.00
2018-11-13T00:13:58.035Z,0.00
2018-11-13T00:14:58.015Z,0.00
2018-11-13T00:15:57.997Z,0.00
2018-11-13T00:16:57.982Z,0.00
2018-11-13T00:17:57.953Z,0.00
2018-11-13T00:18:57.933Z,0.00
2018-11-13T00:19:57.914Z,0.00
2018-11-13T00:20:57.892Z,0.00
2018-11-13T00:21:57.871Z,0.00
2018-11-13T00:22:57.852Z,0.00
2018-11-13T00:23:57.864Z,0.00
2018-11-13T00:24:57.814Z,0.00
2018-11-13T00:25:57.797Z,0.00
2018-11-13T00:26:57.772Z,0.00
2018-11-13T00:27:57.748Z,0.00
2018-11-13T00:28:57.724Z,0.00
2018-11-13T00:29:57.708Z,0.00
2018-11-13T00:30:57.726Z,0.00
2018-11-13T00:31:57.663Z,0.00
2018-11-13T00:32:57.642Z,0.00
2018-11-13T00:33:57.619Z,0.00
2018-11-13T00:34:57.601Z,0.00
2018-11-13T00:35:57.582Z,0.00
2018-11-13T00:36:57.558Z,0.00
2018-11-13T00:37:57.548Z,0.00
2018-11-13T00:38:57.517Z,0.00
2018-11-13T00:39:57.501Z,0.00
2018-11-13T00:40:57.477Z,0.00
2018-11-13T00:41:57.456Z,0.00
2018-11-13T00:42:57.433Z,0.00
2018-11-13T00:43:57.411Z,0.00
2018-11-13T00:44:57.399Z,0.00
2018-11-13T00:45:57.395Z,0.00
2018-11-13T00:46:57.359Z,0.00
2018-11-13T00:47:57.327Z,0.00
2018-11-13T00:48:57.309Z,0.00
2018-11-13T00:49:57.287Z,0.00
2018-11-13T00:50:57.332Z,0.00
2018-11-13T00:51:57.250Z,0.00
2018-11-13T00:52:57.223Z,0.00
2018-11-13T00:53:57.210Z,0.00
2018-11-13T00:54:57.238Z,0.00
2018-11-13T00:55:57.164Z,0.00
2018-11-13T00:56:57.143Z,0.00
2018-11-13T00:57:57.120Z,0.00
2018-11-13T00:58:57.102Z,0.00
2018-11-13T00:59:57.078Z,0.00
2018-11-13T01:00:57.059Z,0.00
2018-11-13T01:01:57.066Z,0.00
2018-11-13T01:02:57.031Z,0.00
2018-11-13T01:03:57.000Z,0.00
2018-11-13T01:04:57.029Z,0.00
2018-11-13T01:05:56.955Z,0.00
2018-11-13T01:06:56.936Z,0.00
2018-11-13T01:07:56.915Z,0.00
2018-11-13T01:08:56.891Z,0.00
2018-11-13T01:09:56.870Z,0.00
2018-11-13T01:10:56.849Z,0.00
2018-11-13T01:11:57.073Z,0.00
2018-11-13T01:12:56.816Z,0.00
2018-11-13T01:13:56.790Z,0.00
2018-11-13T01:14:56.773Z,0.00
2018-11-13T01:15:56.748Z,0.00
2018-11-13T01:16:57.125Z,0.00
2018-11-13T01:17:56.706Z,0.00
2018-11-13T01:18:56.687Z,0.00
2018-11-13T01:19:56.664Z,0.00
2018-11-13T01:20:56.641Z,0.00
2018-11-13T01:21:56.625Z,0.00
2018-11-13T01:22:56.599Z,0.00
2018-11-13T01:23:56.600Z,0.00
2018-11-13T01:24:56.558Z,0.00
2018-11-13T01:25:56.551Z,0.00
2018-11-13T01:26:56.517Z,0.00
2018-11-13T01:27:56.497Z,0.00
2018-11-13T01:28:56.474Z,0.00
2018-11-13T01:29:56.455Z,0.00
2018-11-13T01:30:56.433Z,0.00
2018-11-13T01:31:56.412Z,0.00
2018-11-13T01:32:56.391Z,0.00
2018-11-13T01:33:56.371Z,0.00
2018-11-13T01:34:56.349Z,0.00
2018-11-13T01:35:56.330Z,0.00
2018-11-13T01:36:56.309Z,0.00
2018-11-13T01:37:56.290Z,0.00
2018-11-13T01:38:56.270Z,0.00
2018-11-13T01:39:56.245Z,0.00
2018-11-13T01:40:56.223Z,0.00
2018-11-13T01:41:56.202Z,0.00
2018-11-13T01:42:56.189Z,0.00
2018-11-13T01:43:56.163Z,0.00
2018-11-13T01:44:56.140Z,0.00
2018-11-13T01:45:56.119Z,0.00
2018-11-13T01:46:56.109Z,0.00
2018-11-13T01:47:56.120Z,0.00
2018-11-13T01:48:56.078Z,0.00
2018-11-13T01:49:56.037Z,0.00
2018-11-13T01:50:56.021Z,0.00
2018-11-13T01:51:55.995Z,0.00
2018-11-13T01:52:55.973Z,0.00
2018-11-13T01:53:55.957Z,0.00
2018-11-13T01:54:55.932Z,0.00
2018-11-13T01:55:55.912Z,0.00
2018-11-13T01:56:55.908Z,0.00
2018-11-13T01:57:55.871Z,0.00
2018-11-13T01:58:55.848Z,0.00
2018-11-13T01:59:55.834Z,0.00
2018-11-13T02:00:55.822Z,0.00
2018-11-13T02:01:55.786Z,0.00
2018-11-13T02:02:55.765Z,0.00
2018-11-13T02:03:55.745Z,0.00
2018-11-13T02:04:55.723Z,0.00
2018-11-13T02:05:55.703Z,0.00
2018-11-13T02:06:55.681Z,0.00
2018-11-13T02:07:55.659Z,0.00
2018-11-13T02:08:55.645Z,0.00
2018-11-13T02:09:55.617Z,0.00
2018-11-13T02:10:55.595Z,0.00
2018-11-13T02:11:55.575Z,0.00
2018-11-13T02:12:55.555Z,0.00
2018-11-13T02:13:55.534Z,0.00
2018-11-13T02:14:55.517Z,0.00
2018-11-13T02:15:55.492Z,0.00
2018-11-13T02:16:55.474Z,0.00
2018-11-13T02:17:55.451Z,0.00
2018-11-13T02:18:55.431Z,0.00
2018-11-13T02:19:55.410Z,0.00
2018-11-13T02:20:55.388Z,0.00
2018-11-13T02:21:55.373Z,0.00
2018-11-13T02:22:55.347Z,0.00
2018-11-13T02:23:55.325Z,0.00
2018-11-13T02:24:55.303Z,0.00
2018-11-13T02:25:55.287Z,0.00
2018-11-13T02:26:55.262Z,0.00
2018-11-13T02:27:55.241Z,0.00
2018-11-13T02:28:55.220Z,0.00
2018-11-13T02:29:55.200Z,0.00
2018-11-13T02:30:55.183Z,0.00
2018-11-13T02:31:55.157Z,0.00
2018-11-13T02:32:55.136Z,0.00
2018-11-13T02:33:55.113Z,0.00
2018-11-13T02:34:55.094Z,0.00
2018-11-13T02:35:55.074Z,0.00
2018-11-13T02:36:55.054Z,0.00
2018-11-13T02:37:55.030Z,0.00
2018-11-13T02:38:55.020Z,0.00
2018-11-13T02:39:54.989Z,0.00
2018-11-13T02:40:54.969Z,0.00
2018-11-13T02:41:54.957Z,0.00
2018-11-13T02:42:54.928Z,0.00
2018-11-13T02:43:54.904Z,0.00
2018-11-13T02:44:54.883Z,0.00
2018-11-13T02:45:54.867Z,0.00
2018-11-13T02:46:54.844Z,0.00
2018-11-13T02:47:54.822Z,0.00
2018-11-13T02:48:55.096Z,0.00
2018-11-13T02:49:54.821Z,0.00
2018-11-13T02:50:54.763Z,0.00
2018-11-13T02:51:54.739Z,0.00
2018-11-13T02:52:54.716Z,0.00
2018-11-13T02:53:54.695Z,0.00
2018-11-13T02:54:54.673Z,0.00
2018-11-13T02:55:54.654Z,0.00
2018-11-13T02:56:54.632Z,0.00
2018-11-13T02:57:54.612Z,0.00
2018-11-13T02:58:54.590Z,0.00
2018-11-13T02:59:54.574Z,0.00
2018-11-13T03:00:54.549Z,0.00
2018-11-13T03:01:54.527Z,0.00
2018-11-13T03:02:54.509Z,0.00
2018-11-13T03:03:54.486Z,0.00
2018-11-13T03:04:54.464Z,0.00
2018-11-13T03:05:54.447Z,0.00
2018-11-13T03:06:54.423Z,0.00
2018-11-13T03:07:54.406Z,0.00
2018-11-13T03:08:54.388Z,0.00
2018-11-13T03:09:54.359Z,0.00
2018-11-13T03:10:54.338Z,0.00
2018-11-13T03:11:54.322Z,0.00
2018-11-13T03:12:54.295Z,0.00
2018-11-13T03:13:54.485Z,0.00
2018-11-13T03:14:54.256Z,0.00
2018-11-13T03:15:54.238Z,0.00
2018-11-13T03:16:54.213Z,0.00
2018-11-13T03:17:54.191Z,0.00
2018-11-13T03:18:54.171Z,0.00
2018-11-13T03:19:54.152Z,0.00
2018-11-13T03:20:54.132Z,0.00
2018-11-13T03:21:54.115Z,0.00
2018-11-13T03:22:54.088Z,0.00
2018-11-13T03:23:54.075Z,0.00
2018-11-13T03:24:54.046Z,0.00
2018-11-13T03:25:54.023Z,0.00
2018-11-13T03:26:54.002Z,0.00
2018-11-13T03:27:53.982Z,0.00
2018-11-13T03:28:53.960Z,0.00
2018-11-13T03:29:53.941Z,0.00
2018-11-13T03:30:54.006Z,0.00
2018-11-13T03:31:53.899Z,0.00
2018-11-13T03:32:53.877Z,0.00
2018-11-13T03:33:53.860Z,0.00
2018-11-13T03:34:53.836Z,0.00
2018-11-13T03:35:53.814Z,0.00
2018-11-13T03:36:53.792Z,0.00
2018-11-13T03:37:53.790Z,0.00
2018-11-13T03:38:53.752Z,0.00
2018-11-13T03:39:53.732Z,0.00
2018-11-13T03:40:53.709Z,0.00
2018-11-13T03:41:53.690Z,0.00
2018-11-13T03:42:53.669Z,0.00
2018-11-13T03:43:53.651Z,0.00
2018-11-13T03:44:53.632Z,0.00
2018-11-13T03:45:53.605Z,0.00
2018-11-13T03:46:53.587Z,0.00
2018-11-13T03:47:53.563Z,0.00
2018-11-13T03:48:53.543Z,0.00
2018-11-13T03:49:53.522Z,0.00
2018-11-13T03:50:53.501Z,0.00
2018-11-13T03:51:53.481Z,0.00
2018-11-13T03:52:53.460Z,0.00
2018-11-13T03:53:53.439Z,0.00
2018-11-13T03:54:53.420Z,0.00
2018-11-13T03:55:53.397Z,0.00
2018-11-13T03:56:53.375Z,0.00
2018-11-13T03:57:53.355Z,0.00
2018-11-13T03:58:53.333Z,0.00
2018-11-13T03:59:53.313Z,0.00
2018-11-13T04:00:53.289Z,0.00
2018-11-13T04:01:53.273Z,0.00
2018-11-13T04:02:53.253Z,0.00
2018-11-13T04:03:53.227Z,0.00
2018-11-13T04:04:53.209Z,0.00
2018-11-13T04:05:53.187Z,0.00
2018-11-13T04:06:53.168Z,0.00
2018-11-13T04:07:53.143Z,0.00
2018-11-13T04:08:53.123Z,0.00
2018-11-13T04:09:53.105Z,0.00
2018-11-13T04:10:53.082Z,0.00
2018-11-13T04:11:53.068Z,0.00
2018-11-13T04:12:53.037Z,0.00
2018-11-13T04:13:53.018Z,0.00
2018-11-13T04:14:52.999Z,0.00
2018-11-13T04:15:52.977Z,0.00
2018-11-13T04:16:52.957Z,0.00
2018-11-13T04:17:52.936Z,0.00
2018-11-13T04:18:52.916Z,0.00
2018-11-13T04:19:52.892Z,0.00
2018-11-13T04:20:52.869Z,0.00
2018-11-13T04:21:52.848Z,0.00
2018-11-13T04:22:52.833Z,0.00
2018-11-13T04:23:52.806Z,0.00
2018-11-13T04:24:52.792Z,0.00
2018-11-13T04:25:52.766Z,0.00
2018-11-13T04:26:52.742Z,0.00
2018-11-13T04:27:52.731Z,0.00
2018-11-13T04:28:52.700Z,0.00
2018-11-13T04:29:52.679Z,0.00
2018-11-13T04:30:52.843Z,0.00
2018-11-13T04:31:52.637Z,0.00
2018-11-13T04:32:52.619Z,0.00
2018-11-13T04:33:52.596Z,0.00
2018-11-13T04:34:52.573Z,0.00
2018-11-13T04:35:52.554Z,0.00
2018-11-13T04:36:52.535Z,0.00
2018-11-13T04:37:52.510Z,0.00
2018-11-13T04:38:52.489Z,0.00
2018-11-13T04:39:52.469Z,0.00
2018-11-13T04:40:52.446Z,0.00
2018-11-13T04:41:52.426Z,0.00
2018-11-13T04:42:52.424Z,0.00
2018-11-13T04:43:52.400Z,0.00
2018-11-13T04:44:52.360Z,0.00
2018-11-13T04:45:52.341Z,0.00
2018-11-13T04:46:52.324Z,0.00
2018-11-13T04:47:52.302Z,0.00
2018-11-13T04:48:52.278Z,0.00
2018-11-13T04:49:52.256Z,0.00
2018-11-13T04:50:52.244Z,0.00
2018-11-13T04:51:52.215Z,0.00
2018-11-13T04:52:52.196Z,0.00
2018-11-13T04:53:52.176Z,0.00
2018-11-13T04:54:52.156Z,0.00
2018-11-13T04:55:52.132Z,0.00
2018-11-13T04:56:52.112Z,0.00
2018-11-13T04:57:52.093Z,0.00
2018-11-13T04:58:52.068Z,0.00
2018-11-13T04:59:52.047Z,0.00
2018-11-13T05:00:52.026Z,0.00
2018-11-13T05:01:52.002Z,0.00
2018-11-13T05:02:52.060Z,0.00
2018-11-13T05:03:51.964Z,0.00
2018-11-13T05:04:51.941Z,0.00
2018-11-13T05:05:51.925Z,0.00
2018-11-13T05:06:51.901Z,0.00
2018-11-13T05:07:51.881Z,0.00
2018-11-13T05:08:51.856Z,0.00
2018-11-13T05:09:51.877Z,0.00
2018-11-13T05:10:51.815Z,0.00
2018-11-13T05:11:51.794Z,0.00
2018-11-13T05:12:51.775Z,0.00
2018-11-13T05:13:51.753Z,0.00
2018-11-13T05:14:51.732Z,0.00
2018-11-13T05:15:51.711Z,0.00
2018-11-13T05:16:51.692Z,0.00
2018-11-13T05:17:51.669Z,0.00
2018-11-13T05:18:51.658Z,0.00
2018-11-13T05:19:51.629Z,0.00
2018-11-13T05:20:51.607Z,0.00
2018-11-13T05:21:51.584Z,0.00
2018-11-13T05:22:51.611Z,0.00
2018-11-13T05:23:51.547Z,0.00
2018-11-13T05:24:51.523Z,0.00
2018-11-13T05:25:51.503Z,0.00
2018-11-13T05:26:51.481Z,0.00
2018-11-13T05:27:51.460Z,0.00
2018-11-13T05:28:51.438Z,0.00
2018-11-13T05:29:51.421Z,0.00
2018-11-13T05:30:51.403Z,0.00
2018-11-13T05:31:51.377Z,0.00
2018-11-13T05:32:51.354Z,0.00
2018-11-13T05:33:51.339Z,0.00
2018-11-13T05:34:51.317Z,0.00
2018-11-13T05:35:51.297Z,0.00
2018-11-13T05:36:51.270Z,0.00
2018-11-13T05:37:51.251Z,0.00
2018-11-13T05:38:51.232Z,0.00
2018-11-13T05:39:51.212Z,0.00
2018-11-13T05:40:51.196Z,0.00
2018-11-13T05:41:51.222Z,0.00
2018-11-13T05:42:51.147Z,0.00
2018-11-13T05:43:51.128Z,0.00
2018-11-13T05:44:51.104Z,0.00
2018-11-13T05:45:51.082Z,0.00
2018-11-13T05:46:51.065Z,0.00
2018-11-13T05:47:51.044Z,0.00
2018-11-13T05:48:51.020Z,0.00
2018-11-13T05:49:50.999Z,0.00
2018-11-13T05:50:50.978Z,0.00
2018-11-13T05:51:50.957Z,0.00
2018-11-13T05:52:50.936Z,0.00
2018-11-13T05:53:50.917Z,0.00
2018-11-13T05:54:50.893Z,0.00
2018-11-13T05:55:50.873Z,0.00
2018-11-13T05:56:50.850Z,0.00
2018-11-13T05:57:50.829Z,0.00
2018-11-13T05:58:50.809Z,0.00
2018-11-13T05:59:50.860Z,0.00
2018-11-13T06:00:50.767Z,0.00
2018-11-13T06:01:50.745Z,0.00
2018-11-13T06:02:50.725Z,0.00
2018-11-13T06:03:50.704Z,0.00
2018-11-13T06:04:50.684Z,0.00
2018-11-13T06:05:50.663Z,0.00
2018-11-13T06:06:50.640Z,0.00
2018-11-13T06:07:50.627Z,0.00
2018-11-13T06:08:50.601Z,0.00
2018-11-13T06:09:50.578Z,0.00
2018-11-13T06:10:50.557Z,0.00
2018-11-13T06:11:50.537Z,0.00
2018-11-13T06:12:50.513Z,0.00
2018-11-13T06:13:50.502Z,0.00
2018-11-13T06:14:50.471Z,0.00
2018-11-13T06:15:50.451Z,0.00
2018-11-13T06:16:50.429Z,0.00
2018-11-13T06:17:50.411Z,0.00
2018-11-13T06:18:50.387Z,0.00
2018-11-13T06:19:50.367Z,0.00
2018-11-13T06:20:50.345Z,0.00
2018-11-13T06:21:50.328Z,0.00
2018-11-13T06:22:50.343Z,0.00
2018-11-13T06:23:50.281Z,0.00
2018-11-13T06:24:50.262Z,0.00
2018-11-13T06:25:50.238Z,0.00
2018-11-13T06:26:50.220Z,0.00
2018-11-13T06:27:50.196Z,4.00
2018-11-13T06:28:50.177Z,0.00
2018-11-13T06:29:50.156Z,0.00
2018-11-13T06:30:50.136Z,4.00
2018-11-13T06:31:50.114Z,4.00
2018-11-13T06:32:50.093Z,0.00
2018-11-13T06:33:50.079Z,4.00
2018-11-13T06:34:50.049Z,4.00
2018-11-13T06:35:50.030Z,4.00
2018-11-13T06:36:50.016Z,4.00
2018-11-13T06:37:49.987Z,4.00
2018-11-13T06:38:50.002Z,4.00
2018-11-13T06:39:49.950Z,4.00
2018-11-13T06:40:49.924Z,8.00
2018-11-13T06:41:49.901Z,8.00
2018-11-13T06:42:49.881Z,8.00
2018-11-13T06:43:49.870Z,8.00
2018-11-13T06:44:49.842Z,8.00
2018-11-13T06:45:49.822Z,8.00
2018-11-13T06:46:49.795Z,8.00
2018-11-13T06:47:49.777Z,12.00
2018-11-13T06:48:49.810Z,12.00
2018-11-13T06:49:49.734Z,12.00
2018-11-13T06:50:49.715Z,16.00
2018-11-13T06:51:49.698Z,16.00
2018-11-13T06:52:49.674Z,16.00
2018-11-13T06:53:49.648Z,16.00
2018-11-13T06:54:49.628Z,20.00
2018-11-13T06:55:49.606Z,20.00
2018-11-13T06:56:49.585Z,20.00
2018-11-13T06:57:49.564Z,24.00
2018-11-13T06:58:49.541Z,24.00
2018-11-13T06:59:49.524Z,24.00
2018-11-13T07:00:49.502Z,24.00
2018-11-13T07:01:49.478Z,28.00
2018-11-13T07:02:49.459Z,28.00
2018-11-13T07:03:49.439Z,28.00
2018-11-13T07:04:49.420Z,28.00
2018-11-13T07:05:49.402Z,32.00
2018-11-13T07:06:49.375Z,32.00
2018-11-13T07:07:49.358Z,32.00
2018-11-13T07:08:49.331Z,36.00
2018-11-13T07:09:49.313Z,36.00
2018-11-13T07:10:49.348Z,36.00
2018-11-13T07:11:49.270Z,36.00
2018-11-13T07:12:49.248Z,36.00
2018-11-13T07:13:49.224Z,40.00
2018-11-13T07:14:49.204Z,40.00
2018-11-13T07:15:49.182Z,40.00
2018-11-13T07:16:49.161Z,40.00
2018-11-13T07:17:49.139Z,44.00
2018-11-13T07:18:49.121Z,44.00
2018-11-13T07:19:49.103Z,44.00
2018-11-13T07:20:49.075Z,44.00
2018-11-13T07:21:49.056Z,44.00
2018-11-13T07:22:49.033Z,44.00
2018-11-13T07:23:49.012Z,40.00
2018-11-13T07:24:49.006Z,40.00
2018-11-13T07:25:48.976Z,40.00
2018-11-13T07:26:48.948Z,40.00
2018-11-13T07:27:49.037Z,40.00
2018-11-13T07:28:48.909Z,36.00
2018-11-13T07:29:48.890Z,36.00
2018-11-13T07:30:48.864Z,36.00
2018-11-13T07:31:48.845Z,36.00
2018-11-13T07:32:48.822Z,36.00
2018-11-13T07:33:48.801Z,40.00
2018-11-13T07:34:48.780Z,40.00
2018-11-13T07:35:48.758Z,52.00
2018-11-13T07:36:48.737Z,64.00
2018-11-13T07:37:48.718Z,60.00
2018-11-13T07:38:48.696Z,56.00
2018-11-13T07:39:48.682Z,60.00
2018-11-13T07:40:48.693Z,68.00
2018-11-13T07:41:48.646Z,60.00
2018-11-13T07:42:48.622Z,64.00
2018-11-13T07:43:48.599Z,68.00
2018-11-13T07:44:48.570Z,76.00
2018-11-13T07:45:48.549Z,84.00
2018-11-13T07:46:48.592Z,80.00
2018-11-13T07:47:48.682Z,80.00
2018-11-13T07:48:48.477Z,80.00
2018-11-13T07:49:48.459Z,76.00
2018-11-13T07:50:48.438Z,76.00
2018-11-13T07:51:48.450Z,84.00
2018-11-13T07:52:48.392Z,80.00
2018-11-13T07:53:48.416Z,84.00
2018-11-13T07:54:48.357Z,96.00
2018-11-13T07:55:48.332Z,100.00
2018-11-13T07:56:48.309Z,104.00
2018-11-13T07:57:48.288Z,100.00
2018-11-13T07:58:48.267Z,104.00
2018-11-13T07:59:48.246Z,108.00
2018-11-13T08:00:48.226Z,120.00
2018-11-13T08:01:48.203Z,128.00
2018-11-13T08:02:48.183Z,156.00
2018-11-13T08:03:48.241Z,192.00
2018-11-13T08:04:48.139Z,188.00
2018-11-13T08:05:48.121Z,188.00
2018-11-13T08:06:48.184Z,200.00
2018-11-13T08:07:48.077Z,208.00
2018-11-13T08:08:48.053Z,192.00
2018-11-13T08:09:48.034Z,188.00
2018-11-13T08:10:48.014Z,184.00
2018-11-13T08:11:47.991Z,176.00
2018-11-13T08:12:48.026Z,192.00
2018-11-13T08:13:47.945Z,204.00
2018-11-13T08:14:47.926Z,216.00
2018-11-13T08:15:47.908Z,224.00
2018-11-13T08:16:47.892Z,212.00
2018-11-13T08:17:47.862Z,216.00
2018-11-13T08:18:47.892Z,224.00
2018-11-13T08:19:47.820Z,216.00
2018-11-13T08:20:47.800Z,176.00
2018-11-13T08:21:47.788Z,160.00
2018-11-13T08:22:47.767Z,148.00
2018-11-13T08:23:47.735Z,144.00
2018-11-13T08:24:47.713Z,156.00
2018-11-13T08:25:47.690Z,172.00
2018-11-13T08:26:47.714Z,184.00
2018-11-13T08:27:47.648Z,192.00
2018-11-13T08:28:47.656Z,188.00
2018-11-13T08:29:47.607Z,168.00
2018-11-13T08:30:47.592Z,160.00
2018-11-13T08:31:47.571Z,168.00
2018-11-13T08:32:47.549Z,172.00
2018-11-13T08:33:47.526Z,184.00
2018-11-13T08:34:47.551Z,184.00
2018-11-13T08:35:47.591Z,184.00
2018-11-13T08:36:47.459Z,196.00
2018-11-13T08:37:47.442Z,204.00
2018-11-13T08:38:47.416Z,196.00
2018-11-13T08:39:47.394Z,196.00
2018-11-13T08:40:47.373Z,212.00
2018-11-13T08:41:47.356Z,248.00
2018-11-13T08:42:47.330Z,208.00
2018-11-13T08:43:47.338Z,204.00
2018-11-13T08:44:47.289Z,208.00
2018-11-13T08:45:47.265Z,180.00
2018-11-13T08:46:47.243Z,168.00
2018-11-13T08:47:47.224Z,160.00
2018-11-13T08:48:47.205Z,144.00
2018-11-13T08:49:47.181Z,136.00
2018-11-13T08:50:47.166Z,120.00
2018-11-13T08:51:47.139Z,116.00
2018-11-13T08:52:47.117Z,112.00
2018-11-13T08:53:47.095Z,120.00
2018-11-13T08:54:47.075Z,120.00
2018-11-13T08:55:47.058Z,116.00
2018-11-13T08:56:47.031Z,112.00
2018-11-13T08:57:47.011Z,108.00
2018-11-13T08:58:47.019Z,124.00
2018-11-13T08:59:46.971Z,124.00
2018-11-13T09:00:46.949Z,128.00
2018-11-13T09:01:46.932Z,116.00
2018-11-13T09:02:46.908Z,112.00
2018-11-13T09:03:46.893Z,128.00
2018-11-13T09:04:46.872Z,132.00
2018-11-13T09:05:46.843Z,112.00
2018-11-13T09:06:46.839Z,88.00
2018-11-13T09:07:46.802Z,80.00
2018-11-13T09:08:46.777Z,84.00
2018-11-13T09:09:46.770Z,84.00
2018-11-13T09:10:46.736Z,88.00
2018-11-13T09:11:46.885Z,76.00
2018-11-13T09:12:46.700Z,80.00
2018-11-13T09:13:46.673Z,76.00
2018-11-13T09:14:46.654Z,68.00
2018-11-13T09:15:46.629Z,68.00
2018-11-13T09:16:46.608Z,64.00
2018-11-13T09:17:46.589Z,64.00
2018-11-13T09:18:46.607Z,64.00
2018-11-13T09:19:46.658Z,80.00
2018-11-13T09:20:46.522Z,104.00
2018-11-13T09:21:46.539Z,96.00
2018-11-13T09:22:46.541Z,80.00
2018-11-13T09:23:46.466Z,100.00
2018-11-13T09:24:46.451Z,144.00
2018-11-13T09:25:46.419Z,136.00
2018-11-13T09:26:46.399Z,148.00
2018-11-13T09:27:46.377Z,164.00
2018-11-13T09:28:46.355Z,156.00
2018-11-13T09:29:46.378Z,144.00
2018-11-13T09:30:46.659Z,160.00
2018-11-13T09:31:46.378Z,160.00
2018-11-13T09:32:46.274Z,148.00
2018-11-13T09:33:46.254Z,152.00
2018-11-13T09:34:46.233Z,184.00
2018-11-13T09:35:46.214Z,192.00
2018-11-13T09:36:46.186Z,212.00
2018-11-13T09:37:46.168Z,208.00
2018-11-13T09:38:46.147Z,204.00
2018-11-13T09:39:46.159Z,192.00
2018-11-13T09:40:46.101Z,188.00
2018-11-13T09:41:46.080Z,216.00
2018-11-13T09:42:46.058Z,228.00
2018-11-13T09:43:46.040Z,228.00
2018-11-13T09:44:46.035Z,276.00
2018-11-13T09:45:46.014Z,268.00
2018-11-13T09:46:45.974Z,272.00
2018-11-13T09:47:45.994Z,284.00
2018-11-13T09:48:45.937Z,292.00
2018-11-13T09:49:45.910Z,288.00
2018-11-13T09:50:45.952Z,272.00
2018-11-13T09:51:45.870Z,216.00
2018-11-13T09:52:45.849Z,220.00
2018-11-13T09:53:45.914Z,248.00
2018-11-13T09:54:45.806Z,268.00
2018-11-13T09:55:45.794Z,340.00
2018-11-13T09:56:45.767Z,424.00
2018-11-13T09:57:45.744Z,424.00
2018-11-13T09:58:45.821Z,264.00
2018-11-13T09:59:45.744Z,300.00
2018-11-13T10:00:45.912Z,596.00
2018-11-13T10:01:46.137Z,432.00
2018-11-13T10:02:46.376Z,360.00
2018-11-13T10:03:46.355Z,388.00
2018-11-13T10:04:46.428Z,364.00
2018-11-13T10:05:45.682Z,284.00
2018-11-13T10:06:45.562Z,272.00
2018-11-13T10:07:45.529Z,256.00
2018-11-13T10:08:45.508Z,388.00
2018-11-13T10:09:45.489Z,428.00
2018-11-13T10:10:45.537Z,392.00
2018-11-13T10:11:45.446Z,320.00
2018-11-13T10:12:45.424Z,224.00
2018-11-13T10:13:45.403Z,268.00
2018-11-13T10:14:45.384Z,348.00
2018-11-13T10:15:45.363Z,440.00
2018-11-13T10:16:45.343Z,604.00
2018-11-13T10:17:45.427Z,588.00
2018-11-13T10:18:45.301Z,508.00
2018-11-13T10:19:45.281Z,448.00
2018-11-13T10:20:45.255Z,396.00
2018-11-13T10:21:45.239Z,352.00
2018-11-13T10:22:45.212Z,332.00
2018-11-13T10:23:45.194Z,336.00
2018-11-13T10:24:45.181Z,332.00
2018-11-13T10:25:45.152Z,336.00
2018-11-13T10:26:45.134Z,340.00
2018-11-13T10:27:45.157Z,336.00
2018-11-13T10:28:45.091Z,348.00
2018-11-13T10:29:45.075Z,368.00
2018-11-13T10:30:45.050Z,384.00
2018-11-13T10:31:45.031Z,412.00
2018-11-13T10:32:45.025Z,440.00
2018-11-13T10:33:44.988Z,468.00
2018-11-13T10:34:44.966Z,484.00
2018-11-13T10:35:44.942Z,468.00
2018-11-13T10:36:44.924Z,460.00
2018-11-13T10:37:44.900Z,452.00
2018-11-13T10:38:44.885Z,444.00
2018-11-13T10:39:44.858Z,456.00
2018-11-13T10:40:45.081Z,476.00
2018-11-13T10:41:44.817Z,504.00
2018-11-13T10:42:44.795Z,520.00
2018-11-13T10:43:44.776Z,536.00
2018-11-13T10:44:44.757Z,536.00
2018-11-13T10:45:44.733Z,548.00
2018-11-13T10:46:44.714Z,560.00
2018-11-13T10:47:44.703Z,692.00
2018-11-13T10:48:44.718Z,556.00
2018-11-13T10:49:44.650Z,536.00
2018-11-13T10:50:44.627Z,692.00
2018-11-13T10:51:44.614Z,688.00
2018-11-13T10:52:44.592Z,520.00
2018-11-13T10:53:44.567Z,480.00
2018-11-13T10:54:44.549Z,524.00
2018-11-13T10:55:44.528Z,484.00
2018-11-13T10:56:44.509Z,504.00
2018-11-13T10:57:44.487Z,584.00
2018-11-13T10:58:44.464Z,892.00
2018-11-13T10:59:44.444Z,1044.00
2018-11-13T11:00:44.421Z,744.00
2018-11-13T11:01:44.403Z,720.00
2018-11-13T11:02:44.400Z,680.00
2018-11-13T11:03:44.360Z,628.00
2018-11-13T11:04:44.341Z,560.00
2018-11-13T11:05:44.318Z,536.00
2018-11-13T11:06:44.310Z,464.00
2018-11-13T11:07:44.280Z,344.00
2018-11-13T11:08:44.258Z,260.00
2018-11-13T11:09:44.238Z,196.00
2018-11-13T11:10:44.254Z,180.00
2018-11-13T11:11:44.199Z,180.00
2018-11-13T11:12:44.200Z,176.00
2018-11-13T11:13:44.272Z,160.00
2018-11-13T11:14:44.134Z,152.00
2018-11-13T11:15:44.114Z,176.00
2018-11-13T11:16:44.093Z,232.00
2018-11-13T11:17:44.082Z,276.00
2018-11-13T11:18:44.132Z,324.00
2018-11-13T11:19:44.032Z,352.00
2018-11-13T11:20:44.024Z,324.00
2018-11-13T11:21:43.990Z,260.00
2018-11-13T11:22:44.000Z,196.00
2018-11-13T11:23:44.110Z,160.00
2018-11-13T11:24:43.936Z,140.00
2018-11-13T11:25:43.909Z,140.00
2018-11-13T11:26:43.887Z,156.00
2018-11-13T11:27:43.908Z,164.00
2018-11-13T11:28:43.853Z,176.00
2018-11-13T11:29:43.855Z,176.00
2018-11-13T11:30:43.808Z,152.00
2018-11-13T11:31:43.782Z,144.00
2018-11-13T11:32:43.769Z,156.00
2018-11-13T11:33:43.744Z,144.00
2018-11-13T11:34:43.743Z,132.00
2018-11-13T11:35:43.699Z,124.00
2018-11-13T11:36:43.684Z,112.00
2018-11-13T11:37:43.663Z,96.00
2018-11-13T11:38:43.700Z,100.00
2018-11-13T11:39:43.613Z,92.00
2018-11-13T11:40:43.599Z,80.00
2018-11-13T11:41:43.573Z,88.00
2018-11-13T11:42:43.559Z,100.00
2018-11-13T11:43:43.531Z,92.00
2018-11-13T11:44:43.513Z,92.00
2018-11-13T11:45:43.491Z,124.00
2018-11-13T11:46:43.474Z,120.00
2018-11-13T11:47:43.448Z,108.00
2018-11-13T11:48:43.427Z,88.00
2018-11-13T11:49:43.408Z,92.00
2018-11-13T11:50:43.385Z,108.00
2018-11-13T11:51:43.375Z,124.00
2018-11-13T11:52:43.344Z,132.00
2018-11-13T11:53:43.360Z,144.00
2018-11-13T11:54:43.304Z,152.00
2018-11-13T11:55:43.286Z,156.00
2018-11-13T11:56:43.259Z,152.00
2018-11-13T11:57:43.246Z,168.00
2018-11-13T11:58:43.223Z,196.00
2018-11-13T11:59:43.204Z,228.00
2018-11-13T12:00:43.427Z,256.00
2018-11-13T12:01:43.157Z,432.00
2018-11-13T12:02:43.152Z,508.00
2018-11-13T12:03:43.115Z,396.00
2018-11-13T12:04:43.128Z,880.00
2018-11-13T12:05:43.071Z,472.00
2018-11-13T12:06:43.049Z,428.00
2018-11-13T12:07:43.029Z,364.00
2018-11-13T12:08:43.011Z,344.00
2018-11-13T12:09:42.987Z,316.00
2018-11-13T12:10:42.967Z,324.00
2018-11-13T12:11:42.956Z,292.00
2018-11-13T12:12:42.925Z,416.00
2018-11-13T12:13:42.902Z,292.00
2018-11-13T12:14:42.886Z,244.00
2018-11-13T12:15:42.862Z,536.00
2018-11-13T12:16:42.839Z,608.00
2018-11-13T12:17:42.819Z,620.00
2018-11-13T12:18:42.803Z,768.00
2018-11-13T12:19:42.779Z,540.00
2018-11-13T12:20:42.757Z,780.00
2018-11-13T12:21:42.738Z,768.00
2018-11-13T12:22:42.712Z,768.00
2018-11-13T12:23:42.692Z,772.00
2018-11-13T12:24:42.682Z,764.00
2018-11-13T12:25:42.675Z,764.00
2018-11-13T12:26:42.630Z,780.00
2018-11-13T12:27:42.609Z,768.00
2018-11-13T12:28:42.595Z,772.00
2018-11-13T12:29:42.567Z,776.00
2018-11-13T12:30:42.549Z,756.00
2018-11-13T12:31:42.524Z,776.00
2018-11-13T12:32:42.504Z,828.00
2018-11-13T12:33:42.483Z,904.00
2018-11-13T12:34:42.567Z,508.00
2018-11-13T12:35:42.443Z,552.00
2018-11-13T12:36:42.421Z,528.00
2018-11-13T12:37:42.399Z,460.00
2018-11-13T12:38:42.380Z,436.00
2018-11-13T12:39:42.357Z,576.00
2018-11-13T12:40:42.338Z,380.00
2018-11-13T12:41:42.316Z,408.00
2018-11-13T12:42:42.299Z,352.00
2018-11-13T12:43:42.273Z,748.00
2018-11-13T12:44:42.256Z,364.00
2018-11-13T12:45:42.233Z,316.00
2018-11-13T12:46:42.212Z,312.00
2018-11-13T12:47:42.197Z,348.00
2018-11-13T12:48:42.177Z,368.00
2018-11-13T12:49:42.147Z,348.00
2018-11-13T12:50:42.131Z,372.00
2018-11-13T12:51:42.107Z,452.00
2018-11-13T12:52:42.087Z,396.00
2018-11-13T12:53:42.064Z,400.00
2018-11-13T12:54:42.056Z,408.00
2018-11-13T12:55:42.116Z,420.00
2018-11-13T12:56:42.013Z,360.00